createdAt,value
2018-07-14T00:00:05.276Z,11.67
2018-07-14T00:02:33.441Z,6.60
2018-07-14T00:05:01.634Z,7.93
2018-07-14T00:07:29.750Z,7.93
2018-07-14T00:09:57.943Z,7.43
2018-07-14T00:12:26.291Z,8.23
2018-07-14T00:14:54.792Z,9.80
2018-07-14T00:17:23.313Z,8.37
2018-07-14T00:19:52.576Z,6.97
2018-07-14T00:22:20.764Z,8.00
2018-07-14T00:24:48.948Z,9.10
2018-07-14T00:27:17.124Z,8.03
2018-07-14T00:29:45.341Z,8.50
2018-07-14T00:32:13.512Z,7.97
2018-07-14T00:34:42.297Z,11.60
2018-07-14T00:37:10.778Z,9.57
2018-07-14T00:39:40.886Z,7.93
2018-07-14T00:42:10.081Z,8.10
2018-07-14T00:44:38.304Z,7.57
2018-07-14T00:47:07.320Z,10.83
2018-07-14T00:49:35.496Z,7.60
2018-07-14T00:52:04.808Z,8.23
2018-07-14T00:54:33.477Z,9.50
2018-07-14T00:57:01.653Z,9.63
2018-07-14T00:59:29.774Z,7.90
2018-07-14T01:01:58.828Z,10.33
2018-07-14T01:04:27.028Z,8.60
2018-07-14T01:06:55.196Z,7.37
2018-07-14T01:09:23.817Z,8.90
2018-07-14T01:11:52.002Z,8.53
2018-07-14T01:14:20.169Z,9.27
2018-07-14T01:16:48.317Z,10.10
2018-07-14T01:19:16.840Z,10.67
2018-07-14T01:21:45.297Z,9.93
2018-07-14T01:24:13.449Z,8.83
2018-07-14T01:26:44.144Z,9.03
2018-07-14T01:29:13.216Z,10.00
2018-07-14T01:31:41.592Z,9.83
2018-07-14T01:34:10.768Z,8.50
2018-07-14T01:36:38.964Z,9.60
2018-07-14T01:39:07.805Z,11.93
2018-07-14T01:41:36.135Z,10.97
2018-07-14T01:44:06.225Z,8.37
2018-07-14T01:46:34.408Z,8.33
2018-07-14T01:49:02.977Z,8.67
2018-07-14T01:51:31.080Z,7.57
2018-07-14T01:53:59.252Z,9.13
2018-07-14T01:56:27.437Z,10.83
2018-07-14T01:58:56.092Z,8.70
2018-07-14T02:01:24.280Z,8.60
2018-07-14T02:03:52.508Z,8.00
2018-07-14T02:06:20.651Z,7.90
2018-07-14T02:08:49.422Z,9.73
2018-07-14T02:11:18.366Z,9.03
2018-07-14T02:13:46.520Z,10.83
2018-07-14T02:16:15.182Z,9.97
2018-07-14T02:18:43.645Z,10.70
2018-07-14T02:21:11.814Z,8.27
2018-07-14T02:23:40.752Z,9.33
2018-07-14T02:26:09.781Z,10.93
2018-07-14T02:28:38.211Z,8.40
2018-07-14T02:31:06.494Z,8.40
2018-07-14T02:33:35.007Z,8.27
2018-07-14T02:36:03.896Z,8.33
2018-07-14T02:38:32.057Z,11.03
2018-07-14T02:41:00.255Z,8.93
2018-07-14T02:43:28.916Z,8.10
2018-07-14T02:45:57.084Z,8.30
2018-07-14T02:48:25.217Z,8.40
2018-07-14T02:50:53.944Z,11.27
2018-07-14T02:53:22.100Z,7.97
2018-07-14T02:55:50.277Z,9.20
2018-07-14T02:58:18.656Z,9.00
2018-07-14T03:00:47.696Z,8.60
2018-07-14T03:03:15.914Z,7.60
2018-07-14T03:05:45.088Z,9.10
2018-07-14T03:08:13.256Z,7.83
2018-07-14T03:10:41.856Z,9.20
2018-07-14T03:13:10.038Z,8.13
2018-07-14T03:15:40.635Z,8.23
2018-07-14T03:18:08.818Z,8.80
2018-07-14T03:20:37.036Z,7.93
2018-07-14T03:23:06.036Z,8.23
2018-07-14T03:25:34.681Z,9.20
2018-07-14T03:28:03.792Z,7.77
2018-07-14T03:30:32.996Z,8.20
2018-07-14T03:33:02.081Z,7.90
2018-07-14T03:35:30.696Z,7.90
2018-07-14T03:37:59.100Z,9.63
2018-07-14T03:40:27.692Z,9.73
2018-07-14T03:42:55.900Z,7.80
2018-07-14T03:45:26.264Z,8.40
2018-07-14T03:47:55.188Z,9.77
2018-07-14T03:50:25.115Z,7.40
2018-07-14T03:52:53.567Z,7.70
2018-07-14T03:55:21.754Z,7.80
2018-07-14T03:57:49.957Z,7.93
2018-07-14T04:00:18.414Z,9.00
2018-07-14T04:02:46.621Z,7.40
2018-07-14T04:05:14.784Z,10.10
2018-07-14T04:07:42.988Z,7.30
2018-07-14T04:10:11.128Z,7.27
2018-07-14T04:12:39.341Z,7.07
2018-07-14T04:15:07.512Z,7.33
2018-07-14T04:17:35.668Z,10.47
2018-07-14T04:20:03.897Z,8.03
2018-07-14T04:22:32.180Z,8.43
2018-07-14T04:25:02.212Z,7.60
2018-07-14T04:27:30.601Z,7.67
2018-07-14T04:29:58.824Z,6.97
2018-07-14T04:32:27.932Z,13.83
2018-07-14T04:34:56.508Z,10.20
2018-07-14T04:37:24.660Z,8.63
2018-07-14T04:39:52.603Z,7.03
2018-07-14T04:42:21.391Z,6.90
2018-07-14T04:44:49.517Z,11.00
2018-07-14T04:47:17.636Z,7.20
2018-07-14T04:49:45.884Z,6.60
2018-07-14T04:52:14.048Z,7.67
2018-07-14T04:54:42.194Z,7.83
2018-07-14T04:57:10.310Z,8.77
2018-07-14T04:59:38.444Z,12.17
2018-07-14T05:02:06.919Z,8.83
2018-07-14T05:04:50.481Z,9.43
2018-07-14T05:07:19.584Z,6.83
2018-07-14T05:09:50.969Z,7.97
2018-07-14T05:12:19.482Z,8.90
2018-07-14T05:14:47.654Z,7.73
2018-07-14T05:17:17.916Z,9.13
2018-07-14T05:19:46.865Z,9.20
2018-07-14T05:22:15.648Z,8.50
2018-07-14T05:24:44.271Z,7.70
2018-07-14T05:27:13.170Z,9.03
2018-07-14T05:29:42.052Z,7.83
2018-07-14T05:32:10.176Z,8.50
2018-07-14T05:34:38.347Z,6.90
2018-07-14T05:37:06.824Z,7.10
2018-07-14T05:39:35.632Z,7.30
2018-07-14T05:42:03.768Z,7.57
2018-07-14T05:44:31.896Z,6.60
2018-07-14T05:47:00.396Z,7.70
2018-07-14T05:49:28.864Z,7.10
2018-07-14T05:51:57.074Z,7.27
2018-07-14T05:54:25.276Z,6.50
2018-07-14T05:56:53.829Z,7.20
2018-07-14T05:59:22.245Z,6.60
2018-07-14T06:01:51.066Z,6.60
2018-07-14T06:04:19.195Z,6.17
2018-07-14T06:06:48.242Z,6.70
2018-07-14T06:09:17.292Z,6.00
2018-07-14T06:11:45.975Z,5.43
2018-07-14T06:14:14.137Z,5.90
2018-07-14T06:16:42.277Z,6.03
2018-07-14T06:19:10.797Z,5.67
2018-07-14T06:21:39.972Z,9.43
2018-07-14T06:24:09.499Z,7.27
2018-07-14T06:26:37.680Z,6.23
2018-07-14T06:29:05.852Z,5.27
2018-07-14T06:31:34.009Z,6.00
2018-07-14T06:34:03.526Z,5.83
2018-07-14T06:36:31.673Z,6.07
2018-07-14T06:39:00.440Z,6.27
2018-07-14T06:41:28.981Z,5.77
2018-07-14T06:43:58.135Z,5.77
2018-07-14T06:46:26.299Z,9.00
2018-07-14T06:48:55.356Z,6.27
2018-07-14T06:51:23.552Z,5.90
2018-07-14T06:53:51.743Z,5.53
2018-07-14T06:56:19.913Z,5.87
2018-07-14T06:58:48.336Z,6.20
2018-07-14T07:01:18.000Z,7.73
2018-07-14T07:03:46.167Z,5.40
2018-07-14T07:06:14.829Z,6.10
2018-07-14T07:08:42.964Z,5.57
2018-07-14T07:11:11.342Z,5.70
2018-07-14T07:13:39.483Z,5.77
2018-07-14T07:16:09.229Z,6.20
2018-07-14T07:18:38.773Z,6.23
2018-07-14T07:21:07.669Z,6.40
2018-07-14T07:23:36.196Z,5.10
2018-07-14T07:26:05.056Z,7.80
2018-07-14T07:28:33.264Z,5.13
2018-07-14T07:31:01.428Z,5.43
2018-07-14T07:33:30.959Z,5.20
2018-07-14T07:35:59.163Z,4.87
2018-07-14T07:38:30.336Z,4.90
2018-07-14T07:40:58.547Z,5.20
2018-07-14T07:43:26.843Z,5.07
2018-07-14T07:45:54.697Z,4.40
2018-07-14T07:48:22.969Z,5.43
2018-07-14T07:50:51.144Z,5.27
2018-07-14T07:53:19.328Z,4.77
2018-07-14T07:55:47.461Z,6.07
2018-07-14T07:58:15.616Z,4.70
2018-07-14T08:00:43.816Z,4.00
2018-07-14T08:03:12.021Z,4.43
2018-07-14T08:05:40.199Z,4.40
2018-07-14T08:08:08.429Z,4.40
2018-07-14T08:10:38.845Z,5.33
2018-07-14T08:13:07.048Z,3.73
2018-07-14T08:15:35.993Z,3.80
2018-07-14T08:18:05.572Z,4.03
2018-07-14T08:20:33.515Z,3.73
2018-07-14T08:23:02.620Z,4.07
2018-07-14T08:25:30.704Z,3.67
2018-07-14T08:27:59.400Z,3.90
2018-07-14T08:30:27.591Z,3.33
2018-07-14T08:32:56.417Z,3.83
2018-07-14T08:35:25.564Z,4.10
2018-07-14T08:37:53.980Z,3.60
2018-07-14T08:40:22.123Z,3.67
2018-07-14T08:42:51.686Z,3.53
2018-07-14T08:45:19.881Z,7.07
2018-07-14T08:47:48.037Z,6.90
2018-07-14T08:50:16.589Z,3.27
2018-07-14T08:52:44.769Z,3.53
2018-07-14T08:55:12.961Z,3.03
2018-07-14T08:57:41.107Z,2.73
2018-07-14T09:00:09.256Z,3.47
2018-07-14T09:02:37.833Z,4.40
2018-07-14T09:05:06.384Z,3.93
2018-07-14T09:07:36.129Z,4.33
2018-07-14T09:10:04.645Z,3.30
2018-07-14T09:12:32.845Z,3.90
2018-07-14T09:15:02.636Z,3.10
2018-07-14T09:17:31.213Z,3.90
2018-07-14T09:19:59.883Z,3.70
2018-07-14T09:22:28.069Z,3.93
2018-07-14T09:24:56.244Z,3.10
2018-07-14T09:27:24.732Z,3.73
2018-07-14T09:29:53.458Z,3.10
2018-07-14T09:32:22.697Z,3.57
2018-07-14T09:34:50.811Z,4.60
2018-07-14T09:37:19.644Z,3.60
2018-07-14T09:39:47.781Z,3.63
2018-07-14T09:42:16.416Z,4.43
2018-07-14T09:44:44.606Z,3.60
2018-07-14T09:47:13.099Z,3.07
2018-07-14T09:49:42.464Z,3.80
2018-07-14T09:52:10.657Z,3.40
2018-07-14T09:54:38.809Z,3.90
2018-07-14T09:57:07.457Z,4.37
2018-07-14T09:59:35.925Z,3.40
2018-07-14T10:02:04.161Z,4.12
2018-07-14T10:04:33.225Z,3.70
2018-07-14T10:07:01.416Z,3.00
2018-07-14T10:09:29.576Z,3.10
2018-07-14T10:11:57.772Z,3.37
2018-07-14T10:14:25.945Z,3.40
2018-07-14T10:16:54.688Z,3.90
2018-07-14T10:19:23.138Z,5.03
2018-07-14T10:21:52.437Z,6.00
2018-07-14T10:24:21.617Z,3.40
2018-07-14T10:26:49.803Z,4.03
2018-07-14T10:29:17.977Z,3.33
2018-07-14T10:31:46.221Z,3.60
2018-07-14T10:34:14.336Z,3.62
2018-07-14T10:36:42.990Z,3.20
2018-07-14T10:39:11.092Z,3.98
2018-07-14T10:41:39.619Z,3.20
2018-07-14T10:44:07.765Z,2.92
2018-07-14T10:46:36.891Z,3.65
2018-07-14T10:49:05.128Z,2.62
2018-07-14T10:51:33.317Z,3.40
2018-07-14T10:54:02.136Z,3.12
2018-07-14T10:56:31.268Z,3.50
2018-07-14T10:58:59.413Z,3.10
2018-07-14T11:01:27.579Z,3.13
2018-07-14T11:03:55.729Z,3.43
2018-07-14T11:06:23.900Z,4.15
2018-07-14T11:08:52.079Z,3.60
2018-07-14T11:11:20.581Z,3.55
2018-07-14T11:13:48.874Z,2.83
2018-07-14T11:16:17.042Z,4.03
2018-07-14T11:18:45.840Z,3.47
2018-07-14T11:21:14.041Z,3.30
2018-07-14T11:23:42.911Z,4.62
2018-07-14T11:26:11.062Z,3.72
2018-07-14T11:28:39.188Z,3.27
2018-07-14T11:31:07.340Z,4.30
2018-07-14T11:33:35.508Z,3.27
2018-07-14T11:36:04.702Z,2.72
2018-07-14T11:38:33.477Z,3.12
2018-07-14T11:41:01.649Z,3.35
2018-07-14T11:43:29.900Z,4.12
2018-07-14T11:45:59.097Z,3.37
2018-07-14T11:48:28.117Z,3.75
2018-07-14T11:50:57.144Z,3.80
2018-07-14T11:53:25.793Z,3.20
2018-07-14T11:55:53.951Z,3.90
2018-07-14T11:58:21.875Z,3.22
2018-07-14T12:00:50.045Z,3.10
2018-07-14T12:03:18.909Z,3.37
2018-07-14T12:05:47.097Z,3.98
2018-07-14T12:08:15.475Z,3.12
2018-07-14T12:10:44.211Z,2.92
2018-07-14T12:13:12.355Z,3.00
2018-07-14T12:15:40.560Z,2.80
2018-07-14T12:18:08.915Z,3.00
2018-07-14T12:20:37.760Z,3.30
2018-07-14T12:23:06.755Z,2.77
2018-07-14T12:25:36.116Z,2.70
2018-07-14T12:28:06.393Z,3.00
2018-07-14T12:30:35.120Z,2.87
2018-07-14T12:33:03.265Z,3.20
2018-07-14T12:35:32.551Z,2.77
2018-07-14T12:38:00.752Z,2.40
2018-07-14T12:40:28.892Z,2.47
2018-07-14T12:42:57.096Z,3.17
2018-07-14T12:45:25.348Z,2.62
2018-07-14T12:47:53.522Z,2.65
2018-07-14T12:50:23.576Z,2.75
2018-07-14T12:52:52.205Z,3.87
2018-07-14T12:55:21.693Z,2.72
2018-07-14T12:57:50.592Z,3.50
2018-07-14T13:00:19.216Z,2.70
2018-07-14T13:02:47.768Z,2.47
2018-07-14T13:05:16.987Z,2.52
2018-07-14T13:07:46.143Z,3.80
2018-07-14T13:10:14.300Z,2.08
2018-07-14T13:12:42.745Z,2.98
2018-07-14T13:15:12.842Z,2.40
2018-07-14T13:17:41.006Z,3.67
2018-07-14T13:20:09.207Z,2.77
2018-07-14T13:22:37.413Z,2.20
2018-07-14T13:25:05.526Z,2.30
2018-07-14T13:27:35.161Z,2.60
2018-07-14T13:30:04.364Z,2.40
2018-07-14T13:32:33.172Z,3.00
2018-07-14T13:35:01.348Z,2.52
2018-07-14T13:37:29.531Z,2.58
2018-07-14T13:39:58.279Z,3.05
2018-07-14T13:42:26.428Z,2.58
2018-07-14T13:44:56.021Z,2.50
2018-07-14T13:47:24.176Z,2.58
2018-07-14T13:49:52.317Z,2.92
2018-07-14T13:52:20.518Z,2.87
2018-07-14T13:54:48.684Z,2.22
2018-07-14T13:57:16.844Z,2.60
2018-07-14T13:59:45.986Z,2.80
2018-07-14T14:02:14.116Z,2.62
2018-07-14T14:04:43.313Z,3.55
2018-07-14T14:07:11.509Z,3.67
2018-07-14T14:09:40.621Z,2.67
2018-07-14T14:12:09.727Z,3.83
2018-07-14T14:14:37.895Z,3.63
2018-07-14T14:17:06.070Z,2.77
2018-07-14T14:19:34.239Z,2.75
2018-07-14T14:22:02.384Z,3.30
2018-07-14T14:24:31.862Z,3.30
2018-07-14T14:27:00.990Z,3.15
2018-07-14T14:29:29.176Z,3.87
2018-07-14T14:31:57.676Z,4.03
2018-07-14T14:34:25.833Z,3.20
2018-07-14T14:36:54.936Z,2.70
2018-07-14T14:39:23.824Z,4.00
2018-07-14T14:41:52.517Z,3.22
2018-07-14T14:44:21.589Z,4.17
2018-07-14T14:46:51.232Z,3.00
2018-07-14T14:49:21.494Z,4.10
2018-07-14T14:51:50.135Z,3.57
2018-07-14T14:54:18.303Z,3.70
2018-07-14T14:56:46.444Z,3.23
2018-07-14T14:59:14.624Z,3.00
2018-07-14T15:01:43.092Z,4.07
2018-07-14T15:04:11.272Z,3.30
2018-07-14T15:06:39.420Z,3.00
2018-07-14T15:09:07.829Z,4.03
2018-07-14T15:11:36.140Z,4.03
2018-07-14T15:14:05.270Z,4.55
2018-07-14T15:16:33.488Z,3.45
2018-07-14T15:19:01.960Z,3.83
2018-07-14T15:21:30.133Z,3.15
2018-07-14T15:23:58.808Z,3.17
2018-07-14T15:26:27.473Z,3.60
2018-07-14T15:28:55.624Z,3.27
2018-07-14T15:31:24.062Z,4.12
2018-07-14T15:33:52.808Z,2.83
2018-07-14T15:36:21.908Z,3.37
2018-07-14T15:38:50.092Z,3.58
2018-07-14T15:41:18.558Z,4.00
2018-07-14T15:43:46.662Z,4.03
2018-07-14T15:46:15.484Z,5.17
2018-07-14T15:48:45.184Z,4.53
2018-07-14T15:51:13.844Z,3.90
2018-07-14T15:53:42.980Z,5.03
2018-07-14T15:56:11.736Z,3.60
2018-07-14T15:58:40.540Z,3.20
2018-07-14T16:01:08.755Z,3.37
2018-07-14T16:03:36.916Z,3.47
2018-07-14T16:06:05.155Z,3.77
2018-07-14T16:08:33.316Z,3.40
2018-07-14T16:11:01.493Z,3.47
2018-07-14T16:13:29.656Z,4.20
2018-07-14T16:15:58.203Z,3.40
2018-07-14T16:18:26.314Z,3.97
2018-07-14T16:20:54.657Z,4.03
2018-07-14T16:23:23.639Z,3.90
2018-07-14T16:25:52.033Z,3.77
2018-07-14T16:28:20.268Z,3.80
2018-07-14T16:30:49.291Z,3.37
2018-07-14T16:33:17.493Z,3.80
2018-07-14T16:35:46.812Z,4.40
2018-07-14T16:38:14.820Z,5.40
2018-07-14T16:40:43.484Z,4.03
2018-07-14T16:43:11.756Z,4.07
2018-07-14T16:45:39.938Z,3.87
2018-07-14T16:48:09.017Z,4.67
2018-07-14T16:50:37.193Z,4.10
2018-07-14T16:53:05.356Z,4.10
2018-07-14T16:55:33.487Z,3.60
2018-07-14T16:58:02.368Z,4.97
2018-07-14T17:00:32.692Z,4.40
2018-07-14T17:03:01.807Z,4.40
2018-07-14T17:05:30.311Z,5.23
2018-07-14T17:07:59.099Z,4.03
2018-07-14T17:10:27.248Z,3.97
2018-07-14T17:12:55.425Z,4.03
2018-07-14T17:15:23.604Z,4.20
2018-07-14T17:17:51.755Z,6.37
2018-07-14T17:20:20.886Z,4.13
2018-07-14T17:22:48.995Z,3.87
2018-07-14T17:25:17.148Z,7.13
2018-07-14T17:27:45.327Z,5.70
2018-07-14T17:30:13.473Z,4.37
2018-07-14T17:32:41.776Z,4.07
2018-07-14T17:35:11.016Z,3.90
2018-07-14T17:37:39.832Z,4.13
2018-07-14T17:40:08.173Z,4.40
2018-07-14T17:42:36.816Z,4.40
2018-07-14T17:45:05.423Z,4.47
2018-07-14T17:47:33.594Z,3.50
2018-07-14T17:50:01.822Z,8.40
2018-07-14T17:52:29.970Z,5.33
2018-07-14T17:54:58.287Z,4.10
2018-07-14T17:57:26.576Z,4.03
2018-07-14T17:59:54.788Z,4.30
2018-07-14T18:02:23.457Z,3.67
2018-07-14T18:04:51.619Z,4.20
2018-07-14T18:07:20.824Z,4.97
2018-07-14T18:09:48.976Z,4.40
2018-07-14T18:12:18.203Z,5.90
2018-07-14T18:14:46.428Z,3.90
2018-07-14T18:17:14.835Z,4.17
2018-07-14T18:19:42.964Z,4.43
2018-07-14T18:22:11.096Z,4.50
2018-07-14T18:24:39.308Z,5.20
2018-07-14T18:27:07.423Z,4.33
2018-07-14T18:29:35.575Z,4.30
2018-07-14T18:32:03.774Z,4.33
2018-07-14T18:34:31.968Z,4.10
2018-07-14T18:37:01.448Z,5.33
2018-07-14T18:39:30.140Z,4.70
2018-07-14T18:41:58.326Z,4.10
2018-07-14T18:44:26.872Z,4.30
2018-07-14T18:46:55.004Z,3.93
2018-07-14T18:49:23.820Z,6.13
2018-07-14T18:51:51.983Z,4.57
2018-07-14T18:54:20.152Z,4.57
2018-07-14T18:56:48.331Z,4.67
2018-07-14T18:59:16.504Z,5.13
2018-07-14T19:01:45.576Z,4.83
2018-07-14T19:04:13.755Z,5.40
2018-07-14T19:06:43.988Z,5.00
2018-07-14T19:09:12.261Z,5.57
2018-07-14T19:11:40.916Z,4.53
2018-07-14T19:14:09.060Z,5.47
2018-07-14T19:16:37.250Z,5.30
2018-07-14T19:19:05.411Z,5.53
2018-07-14T19:21:33.880Z,5.80
2018-07-14T19:24:02.976Z,4.93
2018-07-14T19:26:31.615Z,4.97
2018-07-14T19:28:59.818Z,4.77
2018-07-14T19:31:28.334Z,4.60
2018-07-14T19:33:57.226Z,5.97
2018-07-14T19:36:26.266Z,5.90
2018-07-14T19:38:54.381Z,5.83
2018-07-14T19:41:23.683Z,5.00
2018-07-14T19:43:51.822Z,4.60
2018-07-14T19:46:21.022Z,5.03
2018-07-14T19:48:50.387Z,4.73
2018-07-14T19:51:18.659Z,5.40
2018-07-14T19:53:47.659Z,5.47
2018-07-14T19:56:15.840Z,5.23
2018-07-14T19:58:43.961Z,5.63
2018-07-14T20:01:12.156Z,5.30
2018-07-14T20:03:41.358Z,5.57
2018-07-14T20:06:09.344Z,5.60
2018-07-14T20:08:37.443Z,5.47
2018-07-14T20:11:05.814Z,6.30
2018-07-14T20:13:33.973Z,7.67
2018-07-14T20:16:02.983Z,6.13
2018-07-14T20:18:31.121Z,6.83
2018-07-14T20:20:59.833Z,8.63
2018-07-14T20:23:28.012Z,7.33
2018-07-14T20:25:55.953Z,8.47
2018-07-14T20:28:24.099Z,7.00
2018-07-14T20:30:52.268Z,7.27
2018-07-14T20:33:20.464Z,7.53
2018-07-14T20:35:48.631Z,7.83
2018-07-14T20:38:18.070Z,8.00
2018-07-14T20:40:46.237Z,8.37
2018-07-14T20:43:14.508Z,8.00
2018-07-14T20:45:42.672Z,9.57
2018-07-14T20:48:11.393Z,8.10
2018-07-14T20:50:39.584Z,6.93
2018-07-14T20:53:08.415Z,8.07
2018-07-14T20:55:36.624Z,8.70
2018-07-14T20:58:05.656Z,8.10
2018-07-14T21:00:34.244Z,9.30
2018-07-14T21:03:02.418Z,9.40
2018-07-14T21:05:32.548Z,8.30
2018-07-14T21:08:00.716Z,8.80
2018-07-14T21:10:28.896Z,9.20
2018-07-14T21:12:57.625Z,8.00
2018-07-14T21:15:26.641Z,9.17
2018-07-14T21:17:56.192Z,9.63
2018-07-14T21:20:24.327Z,11.17
2018-07-14T21:22:53.311Z,9.37
2018-07-14T21:25:21.498Z,11.03
2018-07-14T21:27:49.696Z,9.43
2018-07-14T21:30:18.161Z,11.03
2018-07-14T21:32:46.341Z,9.43
2018-07-14T21:35:14.506Z,10.70
2018-07-14T21:37:42.686Z,10.50
2018-07-14T21:40:11.368Z,9.97
2018-07-14T21:42:40.594Z,10.10
2018-07-14T21:45:09.585Z,10.17
2018-07-14T21:47:37.797Z,10.83
2018-07-14T21:50:06.396Z,10.27
2018-07-14T21:52:34.568Z,10.00
2018-07-14T21:55:02.745Z,12.80
2018-07-14T21:57:30.895Z,10.00
2018-07-14T21:59:59.039Z,10.00
2018-07-14T22:02:27.800Z,8.73
2018-07-14T22:04:56.799Z,9.40
2018-07-14T22:07:26.524Z,9.80
2018-07-14T22:09:54.706Z,8.97
2018-07-14T22:12:22.907Z,9.73
2018-07-14T22:14:53.178Z,10.47
2018-07-14T22:17:21.304Z,10.30
2018-07-14T22:19:49.458Z,8.80
2018-07-14T22:22:17.652Z,10.87
2018-07-14T22:24:45.832Z,9.70
2018-07-14T22:27:14.761Z,11.17
2018-07-14T22:29:43.352Z,12.60
2018-07-14T22:32:11.538Z,11.90
2018-07-14T22:34:39.719Z,10.27
2018-07-14T22:37:08.265Z,10.30
2018-07-14T22:39:37.172Z,11.30
2018-07-14T22:42:05.376Z,11.60
2018-07-14T22:44:33.893Z,11.83
2018-07-14T22:47:02.632Z,11.97
2018-07-14T22:49:31.457Z,12.50
2018-07-14T22:51:59.584Z,11.77
2018-07-14T22:54:27.756Z,13.37
2018-07-14T22:56:55.940Z,14.37
2018-07-14T22:59:24.355Z,13.97
2018-07-14T23:01:52.547Z,18.13
2018-07-14T23:04:21.655Z,14.60
2018-07-14T23:06:50.200Z,15.13
2018-07-14T23:09:18.384Z,14.00
2018-07-14T23:11:47.163Z,14.27
2018-07-14T23:14:15.355Z,13.20
2018-07-14T23:16:43.518Z,13.60
2018-07-14T23:19:12.152Z,14.43
2018-07-14T23:21:41.201Z,15.53
2018-07-14T23:24:10.368Z,14.37
2018-07-14T23:26:40.312Z,13.47
2018-07-14T23:29:09.306Z,12.60
2018-07-14T23:31:38.342Z,11.53
2018-07-14T23:34:06.496Z,11.80
2018-07-14T23:36:34.880Z,12.07
2018-07-14T23:39:03.068Z,11.40
2018-07-14T23:41:31.189Z,11.70
2018-07-14T23:43:59.668Z,10.70
2018-07-14T23:46:27.817Z,11.60
2018-07-14T23:48:56.020Z,12.53
2018-07-14T23:51:24.180Z,13.00
2018-07-14T23:53:52.327Z,12.17
2018-07-14T23:56:20.673Z,13.37
2018-07-14T23:58:48.970Z,13.60
